createdAt,value
2022-08-25T05:33:25.476Z,99.90
2022-08-25T05:36:34.128Z,99.90
2022-08-25T05:39:36.075Z,99.90
2022-08-25T05:42:37.834Z,99.90
2022-08-25T05:45:40.632Z,99.90
2022-08-25T05:48:42.424Z,99.90
2022-08-25T05:51:44.313Z,99.90
2022-08-25T05:54:46.603Z,99.90
2022-08-25T05:57:48.986Z,99.90
2022-08-25T06:00:51.215Z,99.90
2022-08-25T06:03:54.215Z,99.90
2022-08-25T06:06:56.123Z,99.90
2022-08-25T06:09:58.028Z,99.90
2022-08-25T06:13:00.637Z,99.90
2022-08-25T06:50:29.335Z,99.90
2022-08-25T06:53:31.040Z,99.90
2022-08-25T06:56:34.241Z,98.30
2022-08-25T06:59:37.366Z,98.50
2022-08-25T07:02:43.406Z,98.00
2022-08-25T07:05:53.844Z,97.80
2022-08-25T07:08:56.523Z,98.30
2022-08-25T07:11:58.765Z,98.70
2022-08-25T07:15:20.214Z,98.80
2022-08-25T07:18:22.678Z,97.90
2022-08-25T07:21:28.947Z,96.50
2022-08-25T07:24:34.606Z,95.60
2022-08-25T07:27:36.746Z,94.70
2022-08-25T07:30:39.357Z,94.50
2022-08-25T07:34:01.863Z,93.70
2022-08-25T07:37:05.228Z,92.70
2022-08-25T07:40:09.731Z,93.20
2022-08-25T07:43:13.096Z,93.10
2022-08-25T07:46:15.457Z,92.50
2022-08-25T07:49:23.339Z,92.10
2022-08-25T07:52:25.524Z,92.00
2022-08-25T07:55:29.036Z,92.40
2022-08-25T07:58:30.710Z,93.30
2022-08-25T08:01:32.521Z,94.30
2022-08-25T08:04:36.930Z,94.50
2022-08-25T08:07:43.208Z,93.30
2022-08-25T08:11:03.178Z,92.60
2022-08-25T08:14:08.385Z,92.60
2022-08-25T08:17:10.480Z,92.60
2022-08-25T08:20:13.234Z,93.00
2022-08-25T08:23:17.081Z,91.40
2022-08-25T08:26:19.351Z,90.80
2022-08-25T08:29:23.139Z,90.00
2022-08-25T08:32:31.421Z,87.40
2022-08-25T08:35:42.535Z,86.90
2022-08-25T08:38:45.663Z,84.90
2022-08-25T08:42:22.307Z,86.10
2022-08-25T08:45:50.309Z,87.00
2022-08-25T08:49:01.678Z,86.10
2022-08-25T08:52:05.667Z,85.50
2022-08-25T08:55:15.574Z,83.80
2022-08-25T08:58:26.278Z,83.60
2022-08-25T09:01:33.699Z,81.80
2022-08-25T09:04:43.843Z,84.20
2022-08-25T09:07:56.110Z,84.30
2022-08-25T09:11:23.117Z,84.20
2022-08-25T09:15:12.821Z,82.80
2022-08-25T09:18:26.739Z,81.00
2022-08-25T09:22:35.431Z,82.70
2022-08-25T09:25:54.014Z,82.90
2022-08-25T09:29:06.323Z,80.20
2022-08-25T09:32:24.122Z,77.10
2022-08-25T09:35:37.034Z,79.50
2022-08-25T09:38:40.128Z,80.30
2022-08-25T09:41:47.214Z,77.80
2022-08-25T09:44:49.308Z,75.50
2022-08-25T09:47:51.872Z,77.40
2022-08-25T09:51:01.001Z,76.20
2022-08-25T09:54:21.726Z,72.50
2022-08-25T09:57:31.165Z,74.80
2022-08-25T10:00:34.253Z,75.40
2022-08-25T10:03:36.888Z,74.20
2022-08-25T10:06:47.433Z,74.50
2022-08-25T10:09:55.546Z,74.50
2022-08-25T10:13:00.788Z,74.20
2022-08-25T10:16:20.130Z,73.20
2022-08-25T10:19:24.312Z,71.80
2022-08-25T10:22:32.484Z,71.10
2022-08-25T10:25:34.346Z,69.00
2022-08-25T10:29:07.328Z,69.10
2022-08-25T10:32:26.788Z,69.00
2022-08-25T10:35:40.534Z,69.50
2022-08-25T10:38:50.047Z,69.50
2022-08-25T10:42:25.954Z,71.50
2022-08-25T10:45:45.407Z,73.30
2022-08-25T10:49:07.043Z,73.60
2022-08-25T10:52:21.675Z,72.90
2022-08-25T10:55:49.358Z,72.00
2022-08-25T10:59:14.107Z,75.50
2022-08-25T11:02:38.266Z,72.20
2022-08-25T11:05:51.373Z,74.90
2022-08-25T11:08:57.150Z,74.00
2022-08-25T11:12:04.841Z,73.60
2022-08-25T11:15:13.639Z,73.50
2022-08-25T11:18:15.680Z,73.40
2022-08-25T11:21:26.701Z,72.90
2022-08-25T11:24:41.168Z,71.80
2022-08-25T11:28:03.475Z,73.80
2022-08-25T11:31:06.568Z,72.80
2022-08-25T11:34:16.101Z,71.30
2022-08-25T11:37:27.019Z,69.70
2022-08-25T11:41:01.157Z,69.50
2022-08-25T11:44:19.296Z,72.20
2022-08-25T11:47:45.721Z,73.10
2022-08-25T11:51:00.344Z,74.40
2022-08-25T11:54:28.265Z,76.90
2022-08-25T11:57:30.413Z,76.10
2022-08-25T12:00:41.152Z,76.20
2022-08-25T12:03:43.008Z,76.10
2022-08-25T12:07:05.664Z,77.90
2022-08-25T12:10:13.043Z,78.00
2022-08-25T12:13:50.981Z,78.90
2022-08-25T12:16:56.260Z,79.80
2022-08-25T12:19:59.615Z,79.20
2022-08-25T12:23:03.593Z,79.00
2022-08-25T12:26:19.368Z,79.90
2022-08-25T12:29:37.805Z,79.20
2022-08-25T12:33:10.722Z,78.90
2022-08-25T12:36:27.747Z,81.60
2022-08-25T12:39:33.748Z,81.40
2022-08-25T12:42:39.752Z,81.30
2022-08-25T12:45:45.532Z,80.70
2022-08-25T12:49:12.905Z,80.40
2022-08-25T12:52:20.917Z,81.90
2022-08-25T12:55:26.221Z,82.30
2022-08-25T12:58:58.921Z,82.10
2022-08-25T13:02:28.131Z,83.00
2022-08-25T13:05:58.724Z,83.30
2022-08-25T13:09:40.267Z,81.40
2022-08-25T13:13:06.925Z,81.50
2022-08-25T13:16:17.838Z,81.10
2022-08-25T13:19:21.616Z,79.70
2022-08-25T13:22:23.604Z,79.10
2022-08-25T13:25:32.649Z,78.50
2022-08-25T13:28:37.593Z,77.00
2022-08-25T13:31:59.339Z,77.70
2022-08-25T13:35:32.071Z,77.50
2022-08-25T13:38:34.135Z,78.30
2022-08-25T13:41:35.925Z,79.50
2022-08-25T13:44:39.737Z,80.00
2022-08-25T13:47:55.679Z,79.30
2022-08-25T13:51:06.562Z,78.50
2022-08-25T13:54:26.112Z,78.20
2022-08-25T13:57:30.579Z,77.50
2022-08-25T14:00:37.389Z,78.20
2022-08-25T14:03:45.512Z,77.80
2022-08-25T14:06:48.524Z,78.70
2022-08-25T14:10:08.705Z,78.80
2022-08-25T14:13:31.032Z,78.80
2022-08-25T14:16:40.913Z,79.60
2022-08-25T14:19:47.702Z,80.30
2022-08-25T14:23:12.875Z,80.70
2022-08-25T14:26:18.044Z,80.70
2022-08-25T14:29:19.787Z,80.70
2022-08-25T14:32:21.518Z,81.10
2022-08-25T14:35:23.227Z,80.30
2022-08-25T14:38:25.833Z,80.10
2022-08-25T14:41:27.684Z,79.00
2022-08-25T14:44:29.391Z,79.30
2022-08-25T14:47:31.852Z,79.40
2022-08-25T14:50:34.218Z,78.30
2022-08-25T14:53:35.987Z,78.20
2022-08-25T14:56:37.764Z,77.40
2022-08-25T14:59:44.835Z,77.60
2022-08-25T15:02:50.117Z,78.60
2022-08-25T15:05:54.648Z,78.10
2022-08-25T15:09:11.966Z,78.00
2022-08-25T15:12:17.807Z,77.10
2022-08-25T15:15:28.731Z,76.50
2022-08-25T15:18:30.773Z,77.40
2022-08-25T15:21:32.739Z,77.40
2022-08-25T15:24:37.803Z,77.30
2022-08-25T15:27:41.301Z,77.00
2022-08-25T15:30:45.777Z,77.30
2022-08-25T15:33:47.665Z,76.40
2022-08-25T15:36:49.531Z,76.40
2022-08-25T15:39:51.288Z,76.40
2022-08-25T15:42:53.331Z,76.30
2022-08-25T15:45:58.189Z,76.20
2022-08-25T15:49:00.236Z,76.30
2022-08-25T15:52:02.178Z,76.20
2022-08-25T15:55:04.580Z,77.20
2022-08-25T15:58:06.961Z,78.20
